Time;durP1;ratioP1;P1;durP2;ratioP2;P2;SDS_P1;SDS_P2;PMS_P1;PMS_P2;Temp;Humidity;BMP_temperature;BMP_pressure;BME280_temperature;BME280_humidity;BME280_pressure;Samples;Min_cycle;Max_cycle;Signal;HPM_P1;HPM_P2
2021/06/12 00:01:11;;;;;;;16.77;9.35;;;21.60;94.60;;;;;;5050674;28;20044;-81
2021/06/12 00:03:37;;;;;;;15.10;10.20;;;21.60;95.00;;;;;;5053435;28;20413;-81
2021/06/12 00:06:04;;;;;;;14.48;9.65;;;21.60;94.70;;;;;;5052636;28;20029;-80
2021/06/12 00:08:29;;;;;;;14.77;8.95;;;21.60;94.80;;;;;;5054423;28;20025;-81
2021/06/12 00:10:55;;;;;;;15.20;10.02;;;21.50;94.80;;;;;;5068617;28;20111;-81
2021/06/12 00:13:22;;;;;;;12.60;8.90;;;21.50;94.70;;;;;;5054606;28;20086;-81
2021/06/12 00:15:47;;;;;;;14.10;8.43;;;21.60;94.70;;;;;;5051425;28;20025;-81
2021/06/12 00:18:13;;;;;;;13.35;8.65;;;21.50;94.60;;;;;;5054077;28;20389;-82
2021/06/12 00:20:39;;;;;;;13.57;8.02;;;21.50;94.40;;;;;;5051598;28;20044;-81
2021/06/12 00:23:06;;;;;;;13.32;8.10;;;21.50;94.40;;;;;;5052435;28;20025;-81
2021/06/12 00:25:33;;;;;;;13.38;7.60;;;21.50;94.40;;;;;;5052213;28;20028;-81
2021/06/12 00:28:00;;;;;;;13.65;7.90;;;21.40;94.50;;;;;;5069126;28;20132;-81
2021/06/12 00:30:27;;;;;;;13.65;8.27;;;21.40;94.50;;;;;;5067545;28;20070;-81
2021/06/12 00:32:53;;;;;;;12.25;7.70;;;21.40;94.50;;;;;;5053515;28;20021;-81
2021/06/12 00:35:20;;;;;;;11.95;7.18;;;21.40;94.50;;;;;;5051837;28;20535;-81
2021/06/12 00:37:46;;;;;;;12.32;7.68;;;21.40;94.50;;;;;;5051194;28;20033;-81
2021/06/12 00:40:14;;;;;;;11.63;6.53;;;21.40;94.40;;;;;;5051021;28;20027;-81
2021/06/12 00:42:41;;;;;;;10.55;6.88;;;21.40;94.50;;;;;;5053862;28;20470;-81
2021/06/12 00:45:13;;;;;;;12.32;6.82;;;21.30;94.30;;;;;;5068086;28;20053;-81
2021/06/12 00:47:39;;;;;;;11.30;6.50;;;21.30;94.40;;;;;;5052253;28;20025;-81
2021/06/12 00:50:07;;;;;;;10.65;6.32;;;21.30;94.40;;;;;;5051054;28;20024;-82
2021/06/12 00:52:33;;;;;;;9.32;6.03;;;21.30;94.20;;;;;;5053320;28;20025;-81
2021/06/12 00:54:59;;;;;;;9.40;5.55;;;21.40;94.20;;;;;;5053152;28;20033;-82
2021/06/12 00:57:25;;;;;;;8.40;5.47;;;21.40;94.10;;;;;;5053544;28;20021;-80
2021/06/12 00:59:51;;;;;;;9.60;5.65;;;21.30;94.10;;;;;;5051429;28;20025;-81
2021/06/12 01:02:16;;;;;;;9.05;6.15;;;21.30;94.20;;;;;;5051938;28;20093;-81
2021/06/12 01:04:42;;;;;;;10.77;6.25;;;21.40;94.10;;;;;;5067841;28;20524;-81
2021/06/12 01:07:08;;;;;;;10.60;5.78;;;21.40;94.10;;;;;;5052456;28;20039;-82
2021/06/12 01:09:33;;;;;;;11.90;6.63;;;21.30;94.30;;;;;;5052073;28;20025;-82
2021/06/12 01:12:17;;;;;;;8.95;5.80;;;21.30;94.30;;;;;;5052910;28;20235;-81
2021/06/12 01:14:48;;;;;;;11.43;6.53;;;21.20;94.30;;;;;;5056206;28;20492;-81
2021/06/12 01:17:42;;;;;;;11.93;6.95;;;21.20;94.40;;;;;;5057337;28;20107;-82
2021/06/12 01:20:11;;;;;;;10.38;6.32;;;21.20;94.50;;;;;;5056488;28;20029;-82
2021/06/12 01:22:50;;;;;;;12.77;7.07;;;21.20;94.50;;;;;;5057025;28;20029;-81
2021/06/12 01:25:25;;;;;;;10.63;6.30;;;21.20;94.40;;;;;;5058837;28;20028;-82
2021/06/12 01:28:04;;;;;;;9.88;5.68;;;21.20;94.40;;;;;;5055199;28;20116;-82
2021/06/12 01:30:32;;;;;;;10.13;4.97;;;21.20;94.30;;;;;;5055366;28;20037;-81
2021/06/12 01:32:59;;;;;;;;;;;21.20;94.30;;;;;;5056711;28;20021;-81
2021/06/12 01:35:34;;;;;;;10.32;5.93;;;21.20;94.40;;;;;;5054705;28;19984;-80
2021/06/12 01:38:03;;;;;;;10.02;6.32;;;21.20;94.40;;;;;;5054687;28;20055;-81
2021/06/12 01:40:31;;;;;;;11.02;6.32;;;21.10;94.60;;;;;;5054541;28;20024;-81
2021/06/12 01:42:58;;;;;;;13.97;6.63;;;21.10;94.60;;;;;;5056012;28;20025;-81
2021/06/12 01:45:24;;;;;;;9.90;5.75;;;21.10;94.40;;;;;;5054255;28;20362;-81
2021/06/12 01:47:52;;;;;;;10.70;5.93;;;21.00;94.30;;;;;;5056102;28;20021;-81
2021/06/12 01:50:20;;;;;;;8.57;5.95;;;21.00;94.30;;;;;;5069946;28;20032;-81
2021/06/12 01:52:48;;;;;;;9.43;5.67;;;21.00;94.60;;;;;;5071083;28;20029;-81
2021/06/12 01:55:16;;;;;;;10.45;5.55;;;20.90;94.40;;;;;;5071011;28;20052;-80
2021/06/12 01:57:45;;;;;;;11.05;5.38;;;20.90;94.50;;;;;;5054251;28;20033;-81
2021/06/12 02:00:12;;;;;;;10.82;5.93;;;20.90;94.60;;;;;;5054885;28;20021;-81
2021/06/12 02:02:42;;;;;;;10.35;6.13;;;20.80;94.60;;;;;;5070754;28;20025;-82
2021/06/12 02:05:21;;;;;;;10.73;5.88;;;20.70;94.70;;;;;;5055856;28;20031;-81
2021/06/12 02:07:47;;;;;;;10.82;5.13;;;20.70;94.50;;;;;;5056040;28;20474;-81
2021/06/12 02:10:17;;;;;;;9.80;4.72;;;20.60;94.60;;;;;;5054531;28;20025;-81
2021/06/12 02:12:43;;;;;;;10.70;5.63;;;20.60;94.90;;;;;;5071239;28;20032;-81
2021/06/12 02:15:10;;;;;;;9.38;5.50;;;20.60;94.70;;;;;;5053070;28;20025;-81
2021/06/12 02:17:37;;;;;;;9.82;5.53;;;20.50;94.80;;;;;;5055211;28;20086;-81
2021/06/12 02:20:07;;;;;;;15.77;8.48;;;20.60;94.80;;;;;;5054472;28;20040;-82
2021/06/12 02:22:37;;;;;;;13.07;7.68;;;20.60;94.70;;;;;;5055595;28;20021;-80
2021/06/12 02:25:05;;;;;;;10.73;6.55;;;20.60;94.60;;;;;;5054377;28;20095;-80
2021/06/12 02:27:32;;;;;;;10.32;6.03;;;20.60;94.50;;;;;;5053242;28;20044;-81
2021/06/12 02:29:59;;;;;;;11.00;5.72;;;20.60;94.50;;;;;;5054105;28;20036;-81
2021/06/12 02:32:26;;;;;;;10.57;5.88;;;20.70;94.50;;;;;;5054614;28;20098;-81
2021/06/12 02:34:51;;;;;;;16.95;6.97;;;20.70;94.50;;;;;;5053471;28;20032;-82
2021/06/12 02:37:17;;;;;;;15.35;6.78;;;20.60;94.60;;;;;;5055567;28;20033;-81
2021/06/12 02:39:43;;;;;;;12.43;6.05;;;20.60;94.70;;;;;;5054509;28;20060;-82
2021/06/12 02:42:09;;;;;;;13.70;6.28;;;20.60;95.00;;;;;;5054866;28;20397;-81
2021/06/12 02:44:34;;;;;;;12.40;5.50;;;20.60;95.00;;;;;;5052046;28;20017;-82
2021/06/12 02:47:07;;;;;;;9.63;4.38;;;20.60;95.00;;;;;;5055073;28;20092;-81
2021/06/12 02:49:36;;;;;;;11.73;4.63;;;20.50;95.20;;;;;;5053729;28;20028;-80
2021/06/12 02:52:10;;;;;;;8.05;4.10;;;20.50;95.10;;;;;;5052969;28;20021;-81
2021/06/12 02:54:37;;;;;;;10.25;4.15;;;20.50;95.20;;;;;;5052408;28;20029;-81
2021/06/12 02:57:04;;;;;;;7.80;3.97;;;20.40;95.30;;;;;;5053959;28;20025;-81
2021/06/12 02:59:34;;;;;;;7.40;4.03;;;20.40;95.20;;;;;;5053002;28;20047;-81
2021/06/12 03:02:00;;;;;;;7.70;4.18;;;20.50;95.20;;;;;;5052785;28;20122;-80
2021/06/12 03:04:27;;;;;;;7.72;4.13;;;20.50;95.20;;;;;;5054086;28;20415;-81
2021/06/12 03:06:53;;;;;;;10.02;4.13;;;20.50;95.20;;;;;;5054758;28;20021;-81
2021/06/12 03:09:25;;;;;;;8.63;3.80;;;20.50;95.10;;;;;;5052727;28;20078;-81
2021/06/12 03:11:54;;;;;;;9.70;4.03;;;20.50;95.40;;;;;;5054378;28;20104;-81
2021/06/12 03:14:20;;;;;;;9.23;3.85;;;20.50;95.40;;;;;;5054157;28;20121;-80
2021/06/12 03:16:48;;;;;;;11.65;4.15;;;20.50;95.00;;;;;;5069228;28;20025;-81
2021/06/12 03:19:15;;;;;;;6.68;3.50;;;20.50;95.00;;;;;;5054088;28;20108;-80
2021/06/12 03:21:42;;;;;;;7.78;3.85;;;20.50;95.10;;;;;;5053835;28;20028;-81
2021/06/12 03:24:09;;;;;;;8.02;4.10;;;20.50;95.10;;;;;;5052969;28;20119;-81
2021/06/12 03:26:36;;;;;;;7.03;3.70;;;20.50;95.00;;;;;;5052041;28;20094;-82
2021/06/12 03:29:03;;;;;;;9.35;4.30;;;20.50;95.20;;;;;;5068625;28;20032;-81
2021/06/12 03:31:30;;;;;;;10.40;4.20;;;20.50;95.10;;;;;;5053030;28;20029;-82
2021/06/12 03:33:57;;;;;;;7.10;3.90;;;20.50;95.20;;;;;;5054746;28;20064;-81
2021/06/12 03:36:25;;;;;;;9.35;4.40;;;20.50;95.20;;;;;;5054213;28;20489;-81
2021/06/12 03:38:50;;;;;;;8.63;4.67;;;20.40;95.30;;;;;;5054064;28;20039;-81
2021/06/12 03:41:18;;;;;;;7.43;4.35;;;20.40;95.40;;;;;;5054339;28;20025;-82
2021/06/12 03:43:44;;;;;;;9.55;4.85;;;20.40;95.40;;;;;;5052601;28;20036;-82
2021/06/12 03:46:13;;;;;;;9.90;5.20;;;20.40;95.50;;;;;;5069522;28;20096;-81
2021/06/12 03:48:40;;;;;;;10.40;5.25;;;20.50;95.40;;;;;;5054496;28;20081;-82
2021/06/12 03:51:09;;;;;;;8.43;5.07;;;20.30;95.50;;;;;;5053809;28;20611;-81
2021/06/12 03:53:49;;;;;;;10.02;5.35;;;20.30;95.70;;;;;;5054703;28;20024;-81
2021/06/12 03:56:21;;;;;;;9.73;5.53;;;20.20;95.70;;;;;;5054034;28;20044;-81
2021/06/12 03:58:48;;;;;;;9.07;5.32;;;20.20;95.70;;;;;;5053849;28;20025;-81
2021/06/12 04:01:16;;;;;;;9.10;5.18;;;20.20;96.10;;;;;;5052788;28;20086;-81
2021/06/12 04:03:42;;;;;;;9.98;4.97;;;20.20;95.70;;;;;;5052788;28;20044;-82
2021/06/12 04:06:09;;;;;;;9.30;4.68;;;20.30;95.80;;;;;;5054039;28;20025;-82
2021/06/12 04:08:35;;;;;;;10.57;4.70;;;20.20;96.10;;;;;;5052044;28;20053;-81
2021/06/12 04:11:01;;;;;;;9.55;5.00;;;20.30;95.70;;;;;;5052081;28;20029;-81
2021/06/12 04:13:27;;;;;;;12.90;5.40;;;20.20;95.90;;;;;;5054060;28;20087;-82
2021/06/12 04:15:53;;;;;;;12.45;4.70;;;20.20;96.00;;;;;;5053592;28;20029;-82
2021/06/12 04:18:19;;;;;;;7.32;4.60;;;20.10;96.00;;;;;;5052704;28;20074;-81
2021/06/12 04:20:44;;;;;;;10.45;4.95;;;20.10;96.20;;;;;;5053734;28;20101;-81
2021/06/12 04:23:10;;;;;;;9.10;4.68;;;20.10;96.20;;;;;;5053971;28;20033;-82
2021/06/12 04:25:36;;;;;;;9.57;4.95;;;20.10;96.10;;;;;;5052900;28;20488;-81
2021/06/12 04:28:03;;;;;;;11.27;4.75;;;20.10;96.40;;;;;;5054757;28;20021;-81
2021/06/12 04:30:28;;;;;;;12.18;5.53;;;20.10;96.10;;;;;;5053020;28;20021;-82
2021/06/12 04:32:54;;;;;;;10.18;5.32;;;20.10;96.20;;;;;;5054110;28;20036;-82
2021/06/12 04:35:20;;;;;;;8.27;5.00;;;20.10;96.30;;;;;;5068849;28;20340;-81
2021/06/12 04:37:46;;;;;;;10.27;5.35;;;20.10;96.30;;;;;;5053798;28;20044;-81
2021/06/12 04:40:13;;;;;;;12.80;5.15;;;20.10;96.30;;;;;;5053613;28;20071;-81
2021/06/12 04:42:40;;;;;;;10.48;5.40;;;20.10;96.30;;;;;;5052367;28;20029;-79
2021/06/12 04:45:07;;;;;;;8.57;5.32;;;20.10;96.30;;;;;;5052491;28;20025;-80
2021/06/12 04:47:33;;;;;;;10.00;5.85;;;20.10;96.30;;;;;;5069785;28;20124;-82
2021/06/12 04:49:59;;;;;;;16.00;5.55;;;20.10;96.50;;;;;;5053924;28;20064;-81
2021/06/12 04:52:25;;;;;;;11.60;5.30;;;20.10;96.50;;;;;;5054858;28;20040;-82
2021/06/12 04:54:52;;;;;;;9.75;5.40;;;20.10;96.50;;;;;;5071314;28;20036;-82
2021/06/12 04:57:17;;;;;;;12.02;5.13;;;20.10;96.40;;;;;;5054225;28;20431;-82
2021/06/12 04:59:43;;;;;;;9.43;5.53;;;20.10;96.70;;;;;;5052517;28;20036;-81
2021/06/12 05:02:09;;;;;;;10.50;5.40;;;20.10;96.60;;;;;;5055094;28;20452;-81
2021/06/12 05:04:34;;;;;;;11.38;5.82;;;20.10;96.60;;;;;;5070091;28;20039;-81
2021/06/12 05:07:00;;;;;;;12.95;5.53;;;20.10;96.60;;;;;;5053324;28;20036;-82
2021/06/12 05:09:26;;;;;;;15.50;6.20;;;20.10;96.70;;;;;;5054509;28;20029;-81
2021/06/12 05:11:51;;;;;;;13.20;6.28;;;20.00;96.60;;;;;;5053354;28;20037;-80
2021/06/12 05:14:18;;;;;;;10.05;5.45;;;20.00;96.80;;;;;;5070102;28;20029;-81
2021/06/12 05:16:44;;;;;;;12.10;5.97;;;20.00;96.80;;;;;;5069075;28;20446;-82
2021/06/12 05:19:09;;;;;;;12.80;6.15;;;20.00;96.70;;;;;;5069280;28;20029;-81
2021/06/12 05:21:36;;;;;;;11.98;5.68;;;20.10;96.70;;;;;;5054236;28;20033;-83
2021/06/12 05:24:03;;;;;;;12.95;6.47;;;20.10;96.80;;;;;;5069793;28;20032;-81
2021/06/12 05:26:28;;;;;;;15.02;6.28;;;20.00;96.80;;;;;;5053064;28;20036;-80
2021/06/12 05:28:54;;;;;;;12.20;5.93;;;20.00;97.00;;;;;;5052648;28;20029;-82
2021/06/12 05:31:20;;;;;;;12.55;6.90;;;20.00;97.00;;;;;;5054361;28;20032;-82
2021/06/12 05:33:46;;;;;;;10.25;6.20;;;20.00;97.00;;;;;;5055040;28;20108;-82
2021/06/12 05:36:12;;;;;;;13.40;6.97;;;19.90;97.30;;;;;;5053945;28;20112;-81
2021/06/12 05:38:37;;;;;;;11.10;6.60;;;20.00;97.20;;;;;;5054442;28;20033;-81
2021/06/12 05:41:04;;;;;;;13.82;7.05;;;20.00;97.30;;;;;;5068917;28;20052;-82
2021/06/12 05:43:30;;;;;;;13.43;7.32;;;19.90;97.60;;;;;;5053055;28;20079;-82
2021/06/12 05:45:56;;;;;;;14.32;7.97;;;20.00;97.60;;;;;;5053252;28;20052;-82
2021/06/12 05:48:24;;;;;;;15.20;7.85;;;20.00;97.50;;;;;;5052714;28;20087;-81
2021/06/12 05:50:50;;;;;;;16.15;7.47;;;20.00;97.30;;;;;;5052719;28;20119;-81
2021/06/12 05:53:16;;;;;;;12.32;7.25;;;20.00;97.40;;;;;;5053478;28;20151;-81
2021/06/12 05:55:42;;;;;;;12.43;6.75;;;20.10;97.30;;;;;;5054957;28;20037;-82
2021/06/12 05:58:07;;;;;;;14.93;7.32;;;20.10;97.30;;;;;;5053863;28;20118;-80
2021/06/12 06:00:33;;;;;;;15.07;8.18;;;20.10;97.20;;;;;;5053206;28;20096;-82
2021/06/12 06:02:59;;;;;;;18.20;8.68;;;20.10;97.30;;;;;;5055180;28;20525;-81
2021/06/12 06:05:25;;;;;;;16.67;7.97;;;20.20;97.40;;;;;;5071581;28;20351;-82
2021/06/12 06:07:51;;;;;;;15.02;7.90;;;20.10;97.30;;;;;;5056360;28;20021;-82
2021/06/12 06:10:17;;;;;;;18.88;7.88;;;20.10;97.40;;;;;;5053671;28;20029;-81
2021/06/12 06:12:43;;;;;;;15.13;8.63;;;20.10;97.40;;;;;;5056213;28;20031;-83
2021/06/12 06:15:10;;;;;;;15.35;8.35;;;20.20;97.40;;;;;;5055163;28;20073;-82
2021/06/12 06:17:38;;;;;;;17.65;9.55;;;20.20;97.30;;;;;;5055441;28;20103;-82
2021/06/12 06:20:04;;;;;;;16.15;9.95;;;20.10;97.30;;;;;;5052720;28;20017;-81
2021/06/12 06:22:30;;;;;;;18.80;10.05;;;20.00;97.40;;;;;;5054209;28;20047;-81
2021/06/12 06:24:56;;;;;;;20.42;11.05;;;20.10;97.40;;;;;;5053480;28;20108;-82
2021/06/12 06:27:21;;;;;;;19.83;12.05;;;19.90;97.60;;;;;;5052689;28;20109;-84
2021/06/12 06:29:47;;;;;;;18.60;13.00;;;20.00;97.70;;;;;;5051268;28;20386;-82
2021/06/12 06:32:13;;;;;;;20.95;12.93;;;20.00;97.70;;;;;;5053428;28;20470;-82
2021/06/12 06:34:38;;;;;;;20.05;14.73;;;20.00;97.60;;;;;;5052429;28;20083;-81
2021/06/12 06:37:05;;;;;;;20.85;14.50;;;20.00;97.70;;;;;;5052897;28;20036;-81
2021/06/12 06:39:31;;;;;;;21.20;14.30;;;20.00;98.10;;;;;;5052385;28;20056;-81
2021/06/12 06:41:56;;;;;;;19.75;15.02;;;20.00;97.80;;;;;;5053300;28;20370;-80
2021/06/12 06:44:22;;;;;;;23.63;16.00;;;20.00;97.70;;;;;;5053990;28;20025;-82
2021/06/12 06:46:48;;;;;;;21.23;15.63;;;20.10;97.70;;;;;;5053325;28;20102;-82
2021/06/12 06:49:13;;;;;;;20.70;15.55;;;20.10;97.60;;;;;;5051831;28;20079;-82
2021/06/12 06:51:39;;;;;;;21.55;16.05;;;20.20;97.50;;;;;;5052694;28;20051;-83
2021/06/12 06:54:04;;;;;;;20.60;15.88;;;20.20;97.50;;;;;;5050526;28;20036;-83
2021/06/12 06:56:30;;;;;;;25.85;16.73;;;20.20;97.20;;;;;;5051275;28;20150;-83
2021/06/12 06:58:56;;;;;;;20.90;14.85;;;20.10;97.20;;;;;;5051559;28;20023;-84
2021/06/12 07:01:21;;;;;;;22.42;17.58;;;20.10;97.30;;;;;;5050853;28;20054;-82
2021/06/12 07:03:47;;;;;;;29.15;19.90;;;20.10;97.30;;;;;;5050926;28;20025;-81
2021/06/12 07:06:12;;;;;;;24.13;17.00;;;20.00;97.40;;;;;;5054606;28;20025;-85
2021/06/12 07:08:38;;;;;;;24.23;17.50;;;20.00;97.60;;;;;;5052369;28;20071;-83
2021/06/12 07:11:04;;;;;;;23.77;17.50;;;20.00;97.50;;;;;;5053756;28;20032;-83
2021/06/12 07:13:29;;;;;;;27.10;17.92;;;20.00;97.50;;;;;;5053128;28;20055;-82
2021/06/12 07:15:56;;;;;;;24.38;17.13;;;19.90;97.60;;;;;;5053850;28;20025;-83
2021/06/12 07:18:21;;;;;;;24.15;17.25;;;19.90;97.50;;;;;;5053558;28;20373;-82
2021/06/12 07:20:47;;;;;;;26.45;17.15;;;19.90;97.40;;;;;;5053304;28;20073;-84
2021/06/12 07:23:15;;;;;;;25.20;16.67;;;20.00;97.60;;;;;;5051375;28;20025;-83
2021/06/12 07:25:42;;;;;;;25.77;16.40;;;20.00;97.70;;;;;;5053015;28;20071;-84
2021/06/12 07:28:08;;;;;;;18.83;15.73;;;20.00;97.40;;;;;;5052740;28;20264;-82
2021/06/12 07:30:38;;;;;;;23.33;16.52;;;20.10;97.30;;;;;;5053478;28;20044;-83
2021/06/12 07:33:06;;;;;;;23.23;17.65;;;20.10;97.50;;;;;;5054419;28;20450;-82
2021/06/12 07:35:31;;;;;;;24.33;16.65;;;20.20;97.30;;;;;;5051965;28;20466;-82
2021/06/12 07:37:57;;;;;;;21.63;15.85;;;20.20;97.20;;;;;;5053941;28;20036;-81
2021/06/12 07:40:23;;;;;;;24.35;17.08;;;20.20;96.90;;;;;;5053342;28;20075;-82
2021/06/12 07:42:48;;;;;;;19.27;16.00;;;20.10;96.80;;;;;;5057936;28;20031;-83
2021/06/12 07:45:14;;;;;;;24.63;16.23;;;20.10;96.80;;;;;;5053618;28;20433;-81
2021/06/12 07:47:39;;;;;;;22.50;16.73;;;20.10;96.70;;;;;;5052538;28;20519;-82
2021/06/12 07:50:05;;;;;;;22.55;16.17;;;20.10;97.00;;;;;;5052467;28;20036;-83
2021/06/12 07:52:31;;;;;;;19.50;15.30;;;20.00;97.10;;;;;;5053691;28;20486;-83
2021/06/12 07:54:57;;;;;;;22.38;15.88;;;20.10;97.10;;;;;;5052087;28;20029;-82
2021/06/12 07:57:22;;;;;;;21.83;16.05;;;20.10;96.90;;;;;;5053499;28;20112;-83
2021/06/12 07:59:48;;;;;;;25.58;16.08;;;20.10;97.20;;;;;;5050862;28;20064;-84
2021/06/12 08:02:13;;;;;;;23.05;15.07;;;20.10;97.00;;;;;;5050318;28;20116;-83
2021/06/12 08:04:39;;;;;;;19.45;14.90;;;20.00;96.50;;;;;;5052854;28;20128;-83
2021/06/12 08:07:05;;;;;;;18.85;15.20;;;19.90;96.70;;;;;;5051811;28;20033;-83
2021/06/12 08:09:30;;;;;;;21.40;15.32;;;19.90;96.80;;;;;;5049343;28;20090;-82
2021/06/12 08:11:56;;;;;;;20.13;15.15;;;19.90;96.70;;;;;;5050487;28;20029;-83
2021/06/12 08:14:21;;;;;;;21.65;15.90;;;19.90;96.70;;;;;;5050803;28;20025;-82
2021/06/12 08:16:47;;;;;;;22.75;16.48;;;19.80;96.80;;;;;;5050790;28;20450;-84
2021/06/12 08:19:13;;;;;;;25.20;16.45;;;19.80;97.00;;;;;;5051112;28;20029;-83
2021/06/12 08:21:38;;;;;;;21.63;16.98;;;19.80;97.10;;;;;;5053550;28;20104;-83
2021/06/12 08:24:04;;;;;;;21.00;16.52;;;19.80;97.20;;;;;;5056132;28;20261;-83
2021/06/12 08:26:30;;;;;;;24.23;17.58;;;19.80;97.40;;;;;;5057190;28;20033;-83
2021/06/12 08:28:56;;;;;;;22.42;17.25;;;19.70;97.50;;;;;;5057541;28;20029;-84
2021/06/12 08:31:22;;;;;;;23.00;16.88;;;19.80;97.70;;;;;;5053784;28;20531;-83
2021/06/12 08:33:47;;;;;;;23.10;18.17;;;19.80;97.60;;;;;;5057462;28;20028;-83
2021/06/12 08:36:13;;;;;;;20.85;16.17;;;19.80;97.20;;;;;;5055143;28;20040;-82
2021/06/12 08:38:40;;;;;;;21.90;16.65;;;19.80;97.10;;;;;;5055439;28;20033;-82
2021/06/12 08:41:06;;;;;;;24.10;16.98;;;19.80;96.90;;;;;;5054898;28;20021;-83
2021/06/12 08:43:31;;;;;;;23.55;16.15;;;19.90;97.00;;;;;;5056390;28;20116;-83
2021/06/12 08:45:58;;;;;;;22.35;17.50;;;20.00;97.00;;;;;;5055529;28;20032;-83
2021/06/12 08:48:25;;;;;;;21.20;16.50;;;20.00;96.80;;;;;;5058754;28;20040;-84
2021/06/12 08:50:52;;;;;;;22.20;15.73;;;20.10;96.60;;;;;;5056416;28;20592;-84
2021/06/12 08:53:17;;;;;;;22.65;16.85;;;20.20;96.50;;;;;;5059824;28;20029;-83
2021/06/12 08:55:45;;;;;;;22.42;16.05;;;20.30;96.40;;;;;;5057560;28;20036;-84
2021/06/12 08:58:11;;;;;;;19.58;15.93;;;20.30;96.30;;;;;;5058422;28;20159;-84
2021/06/12 09:00:38;;;;;;;21.15;15.40;;;20.30;96.00;;;;;;5056181;28;20113;-83
2021/06/12 09:03:03;;;;;;;21.23;14.75;;;20.30;96.30;;;;;;5058309;28;20428;-85
2021/06/12 09:05:48;;;;;;;19.00;15.00;;;20.30;96.50;;;;;;5057112;28;20013;-84
2021/06/12 09:08:16;;;;;;;18.98;14.93;;;20.40;96.20;;;;;;5055379;28;20578;-83
2021/06/12 09:10:49;;;;;;;19.00;14.63;;;20.40;96.20;;;;;;5056496;28;20057;-84
2021/06/12 09:13:16;;;;;;;21.85;15.68;;;20.40;96.10;;;;;;5055459;28;20024;-83
2021/06/12 09:15:50;;;;;;;20.73;16.08;;;20.40;95.90;;;;;;5054933;28;20053;-84
2021/06/12 09:18:37;;;;;;;19.77;15.80;;;20.40;95.90;;;;;;5056708;28;20442;-83
2021/06/12 09:21:03;;;;;;;20.88;16.63;;;20.40;96.00;;;;;;5054511;28;20388;-84
2021/06/12 09:23:43;;;;;;;21.02;15.52;;;20.40;96.10;;;;;;5054611;28;20071;-83
2021/06/12 09:26:10;;;;;;;24.05;16.05;;;20.40;95.90;;;;;;5054724;28;20031;-83
2021/06/12 09:28:47;;;;;;;20.73;15.70;;;20.30;96.10;;;;;;5056787;28;20439;-84
2021/06/12 09:31:20;;;;;;;24.98;17.48;;;20.40;95.90;;;;;;5053292;28;20560;-83
2021/06/12 09:33:46;;;;;;;25.48;17.17;;;20.40;96.20;;;;;;5055324;28;20072;-83
2021/06/12 09:36:13;;;;;;;20.52;16.38;;;20.40;96.50;;;;;;5054570;28;20033;-84
2021/06/12 09:38:39;;;;;;;25.88;17.65;;;20.50;96.40;;;;;;5054627;28;20060;-83
2021/06/12 09:41:25;;;;;;;20.23;16.08;;;20.60;95.90;;;;;;5053603;28;20434;-82
2021/06/12 09:43:51;;;;;;;19.90;14.75;;;20.50;95.40;;;;;;5053628;28;20123;-82
2021/06/12 09:46:46;;;;;;;26.55;17.52;;;20.60;95.30;;;;;;5051802;28;20086;-83
2021/06/12 09:49:15;;;;;;;26.17;15.68;;;20.60;95.50;;;;;;5043952;28;20082;-84
2021/06/12 09:52:04;;;;;;;25.50;17.17;;;20.70;95.40;;;;;;5054302;28;20028;-83
2021/06/12 09:54:37;;;;;;;22.50;15.90;;;20.80;95.20;;;;;;5054467;28;20044;-82
2021/06/12 09:57:04;;;;;;;24.52;16.42;;;20.70;95.10;;;;;;5053938;28;20059;-83
2021/06/12 09:59:45;;;;;;;23.95;15.60;;;20.70;94.90;;;;;;5051895;28;20086;-84
2021/06/12 10:02:11;;;;;;;22.25;15.85;;;20.80;94.80;;;;;;5052931;28;20440;-84
2021/06/12 10:04:54;;;;;;;21.02;15.90;;;20.80;94.40;;;;;;5054186;28;20207;-83
2021/06/12 10:07:20;;;;;;;25.42;16.95;;;20.80;94.40;;;;;;5052621;28;20370;-84
2021/06/12 10:09:46;;;;;;;23.77;15.98;;;20.70;94.80;;;;;;5052259;28;20028;-83
2021/06/12 10:12:12;;;;;;;23.38;16.45;;;20.60;95.10;;;;;;5055498;28;20478;-84
2021/06/12 10:14:39;;;;;;;37.20;19.35;;;20.60;95.00;;;;;;5054335;28;20067;-83
2021/06/12 10:17:05;;;;;;;31.63;17.52;;;20.60;95.00;;;;;;5055527;28;20033;-83
2021/06/12 10:19:32;;;;;;;26.85;16.40;;;20.60;95.00;;;;;;5054763;28;20450;-83
2021/06/12 10:21:57;;;;;;;26.23;17.67;;;20.60;94.80;;;;;;5055446;28;20086;-85
2021/06/12 10:24:25;;;;;;;20.80;16.83;;;20.70;94.80;;;;;;5055644;28;20033;-84
2021/06/12 10:26:50;;;;;;;23.70;16.60;;;20.70;94.60;;;;;;5055478;28;20082;-83
2021/06/12 10:29:18;;;;;;;20.05;15.85;;;20.70;94.60;;;;;;5056838;28;20081;-82
2021/06/12 10:31:44;;;;;;;22.33;16.27;;;20.80;94.70;;;;;;5056207;28;20207;-84
2021/06/12 10:34:10;;;;;;;19.00;15.43;;;20.80;94.90;;;;;;5055422;28;20056;-84
2021/06/12 10:36:38;;;;;;;22.85;16.35;;;20.80;94.70;;;;;;5056748;28;20385;-82
2021/06/12 10:39:28;;;;;;;22.23;17.08;;;20.80;94.70;;;;;;5055236;28;20060;-83
2021/06/12 10:42:15;;;;;;;26.10;16.95;;;20.80;94.40;;;;;;5055282;28;20025;-83
2021/06/12 10:44:43;;;;;;;19.98;14.75;;;20.80;94.00;;;;;;5054234;28;20513;-82
2021/06/12 10:47:09;;;;;;;18.75;14.52;;;20.80;93.70;;;;;;5054334;28;20044;-85
2021/06/12 10:49:35;;;;;;;22.90;15.57;;;21.00;94.10;;;;;;5054432;28;20188;-83
2021/06/12 10:52:03;;;;;;;20.77;15.32;;;21.00;93.30;;;;;;5053026;28;20024;-83
2021/06/12 10:54:37;;;;;;;23.67;13.35;;;21.10;93.10;;;;;;5053340;28;20469;-83
2021/06/12 10:57:11;;;;;;;17.42;13.15;;;21.10;93.30;;;;;;5054870;28;20461;-83
2021/06/12 10:59:37;;;;;;;17.08;10.55;;;21.20;93.00;;;;;;5052713;28;20017;-82
2021/06/12 11:02:43;;;;;;;13.55;10.30;;;21.30;92.70;;;;;;5053214;28;20497;-83
2021/06/12 11:05:03;;;;;;;15.90;9.52;;;21.30;91.80;;;;;;5054093;28;20029;-84
2021/06/12 11:07:32;;;;;;;17.13;9.98;;;21.40;91.80;;;;;;5053791;28;20044;-83
2021/06/12 11:10:12;;;;;;;15.07;10.15;;;21.30;90.90;;;;;;5053954;28;20017;-84
2021/06/12 11:12:38;;;;;;;16.15;10.63;;;21.10;91.20;;;;;;5053862;28;20100;-83
2021/06/12 11:15:24;;;;;;;14.35;10.27;;;21.10;91.90;;;;;;5052100;28;20049;-83
2021/06/12 11:18:15;;;;;;;12.90;9.07;;;21.10;91.60;;;;;;5046708;28;20126;-84
2021/06/12 11:20:45;;;;;;;14.52;7.28;;;21.20;91.30;;;;;;5052180;28;20021;-83
2021/06/12 11:23:23;;;;;;;9.35;6.53;;;21.20;90.60;;;;;;5069552;28;20583;-82
2021/06/12 11:25:56;;;;;;;11.90;5.90;;;21.30;90.30;;;;;;5053567;28;20029;-83
2021/06/12 11:28:27;;;;;;;9.60;5.30;;;21.30;88.60;;;;;;5055156;28;20091;-82
2021/06/12 11:31:13;;;;;;;8.82;3.65;;;21.30;85.90;;;;;;5051879;28;20051;-84
2021/06/12 11:33:39;;;;;;;11.15;5.43;;;21.40;86.10;;;;;;5055092;28;20081;-83
2021/06/12 11:36:05;;;;;;;5.68;3.53;;;21.40;84.30;;;;;;5053606;28;20075;-83
2021/06/12 11:38:33;;;;;;;7.15;4.25;;;21.40;81.70;;;;;;5069357;28;20024;-84
2021/06/12 11:41:06;;;;;;;8.63;3.72;;;21.50;81.90;;;;;;5051807;28;20025;-84
2021/06/12 11:43:43;;;;;;;6.50;2.83;;;21.50;81.00;;;;;;5052746;28;20120;-82
2021/06/12 11:46:13;;;;;;;6.18;3.20;;;21.50;81.60;;;;;;5052545;28;20047;-84
2021/06/12 11:48:41;;;;;;;20.20;4.22;;;21.60;80.00;;;;;;5053875;28;20044;-83
2021/06/12 11:51:32;;;;;;;6.57;3.65;;;21.60;79.60;;;;;;5051550;28;20049;-84
2021/06/12 11:54:01;;;;;;;8.57;3.67;;;21.60;78.60;;;;;;5054163;28;20111;-82
2021/06/12 11:56:34;;;;;;;9.27;4.05;;;21.60;79.10;;;;;;5052840;28;20120;-83
2021/06/12 11:59:01;;;;;;;5.03;3.20;;;21.60;77.90;;;;;;5068491;28;20059;-83
2021/06/12 12:01:41;;;;;;;5.72;3.20;;;21.60;76.60;;;;;;5050777;28;20025;-84
2021/06/12 12:04:18;;;;;;;8.23;3.20;;;21.60;77.90;;;;;;5052139;28;20052;-84
2021/06/12 12:06:46;;;;;;;9.15;3.72;;;21.60;77.30;;;;;;5052481;28;20021;-83
2021/06/12 12:09:22;;;;;;;7.13;3.20;;;21.60;78.20;;;;;;5051073;28;20490;-83
2021/06/12 12:11:53;;;;;;;7.85;3.72;;;21.70;78.30;;;;;;5052072;28;20511;-84
2021/06/12 12:14:29;;;;;;;7.75;3.50;;;21.80;78.00;;;;;;5051563;28;20021;-82
2021/06/12 12:16:55;;;;;;;9.70;3.50;;;21.80;77.70;;;;;;5068127;28;20029;-84
2021/06/12 12:19:21;;;;;;;6.30;3.22;;;21.70;75.60;;;;;;5051046;28;20466;-83
2021/06/12 12:21:50;;;;;;;11.27;3.70;;;21.60;76.10;;;;;;5052709;28;20102;-83
2021/06/12 12:24:16;;;;;;;6.80;2.80;;;21.50;75.70;;;;;;5053864;28;20017;-82
2021/06/12 12:26:54;;;;;;;6.63;3.17;;;21.50;75.80;;;;;;5051474;28;20028;-83
2021/06/12 12:29:24;;;;;;;10.20;4.20;;;21.50;74.80;;;;;;5050818;28;20115;-82
2021/06/12 12:31:50;;;;;;;9.88;3.60;;;21.60;75.20;;;;;;5051429;28;20401;-83
2021/06/12 12:34:28;;;;;;;11.55;5.60;;;21.70;75.70;;;;;;5052554;28;20096;-84
2021/06/12 12:36:53;;;;;;;12.10;6.10;;;21.70;75.50;;;;;;5053365;28;20021;-83
2021/06/12 12:39:19;;;;;;;6.25;3.80;;;21.80;76.30;;;;;;5050725;28;20386;-83
2021/06/12 12:41:54;;;;;;;8.77;3.20;;;21.80;76.90;;;;;;5068272;28;20043;-83